sensor_id;sensor_type;location;lat;lon;timestamp;temperature;humidity
18932;DHT22;9598;50.954;3.112;2022-09-19T00:00:15;14.60;99.90
18932;DHT22;9598;50.954;3.112;2022-09-19T00:05:18;14.50;99.90
18932;DHT22;9598;50.954;3.112;2022-09-19T00:10:21;14.40;99.90
18932;DHT22;9598;50.954;3.112;2022-09-19T00:15:23;14.30;99.90
18932;DHT22;9598;50.954;3.112;2022-09-19T00:20:25;14.40;99.90
18932;DHT22;9598;50.954;3.112;2022-09-19T00:25:29;14.40;99.90
18932;DHT22;9598;50.954;3.112;2022-09-19T00:30:37;14.40;99.90
18932;DHT22;9598;50.954;3.112;2022-09-19T00:35:39;14.30;99.90
18932;DHT22;9598;50.954;3.112;2022-09-19T00:40:43;14.30;99.90
18932;DHT22;9598;50.954;3.112;2022-09-19T00:45:46;14.30;99.90
18932;DHT22;9598;50.954;3.112;2022-09-19T00:50:52;14.20;99.90
18932;DHT22;9598;50.954;3.112;2022-09-19T00:55:57;14.10;99.90
18932;DHT22;9598;50.954;3.112;2022-09-19T01:00:59;14.10;99.90
18932;DHT22;9598;50.954;3.112;2022-09-19T01:06:11;14.10;99.90
18932;DHT22;9598;50.954;3.112;2022-09-19T01:11:34;14.00;99.90
18932;DHT22;9598;50.954;3.112;2022-09-19T01:16:41;14.00;99.90
18932;DHT22;9598;50.954;3.112;2022-09-19T01:21:50;14.00;99.90
18932;DHT22;9598;50.954;3.112;2022-09-19T01:27:22;13.90;99.90
18932;DHT22;9598;50.954;3.112;2022-09-19T01:32:32;13.90;99.90
18932;DHT22;9598;50.954;3.112;2022-09-19T01:37:38;13.80;99.90
18932;DHT22;9598;50.954;3.112;2022-09-19T01:42:53;13.80;99.90
18932;DHT22;9598;50.954;3.112;2022-09-19T01:48:18;13.80;99.90
18932;DHT22;9598;50.954;3.112;2022-09-19T01:53:30;13.80;99.90
18932;DHT22;9598;50.954;3.112;2022-09-19T01:59:08;13.90;99.90
18932;DHT22;9598;50.954;3.112;2022-09-19T02:04:17;13.90;99.90
18932;DHT22;9598;50.954;3.112;2022-09-19T02:09:26;13.90;99.90
18932;DHT22;9598;50.954;3.112;2022-09-19T02:14:37;14.00;99.90
18932;DHT22;9598;50.954;3.112;2022-09-19T02:19:45;13.90;99.90
18932;DHT22;9598;50.954;3.112;2022-09-19T02:24:49;13.90;99.90
18932;DHT22;9598;50.954;3.112;2022-09-19T02:30:00;14.00;99.90
18932;DHT22;9598;50.954;3.112;2022-09-19T02:35:15;14.00;99.90
18932;DHT22;9598;50.954;3.112;2022-09-19T02:40:22;14.00;99.90
18932;DHT22;9598;50.954;3.112;2022-09-19T02:45:30;14.00;99.90
18932;DHT22;9598;50.954;3.112;2022-09-19T02:50:46;13.90;99.90
18932;DHT22;9598;50.954;3.112;2022-09-19T02:55:54;13.80;99.90
18932;DHT22;9598;50.954;3.112;2022-09-19T03:01:01;13.80;99.90
18932;DHT22;9598;50.954;3.112;2022-09-19T03:06:08;13.80;99.90
18932;DHT22;9598;50.954;3.112;2022-09-19T03:11:14;13.80;99.90
18932;DHT22;9598;50.954;3.112;2022-09-19T03:16:23;13.70;99.90
18932;DHT22;9598;50.954;3.112;2022-09-19T03:21:28;13.70;99.90
18932;DHT22;9598;50.954;3.112;2022-09-19T03:26:33;13.70;99.90
18932;DHT22;9598;50.954;3.112;2022-09-19T03:31:37;13.80;99.90
18932;DHT22;9598;50.954;3.112;2022-09-19T03:36:44;13.80;99.90
18932;DHT22;9598;50.954;3.112;2022-09-19T03:41:52;13.80;99.90
18932;DHT22;9598;50.954;3.112;2022-09-19T03:46:55;13.80;99.90
18932;DHT22;9598;50.954;3.112;2022-09-19T03:52:00;13.80;99.90
18932;DHT22;9598;50.954;3.112;2022-09-19T03:57:03;13.80;99.90
18932;DHT22;9598;50.954;3.112;2022-09-19T04:02:05;13.80;99.90
18932;DHT22;9598;50.954;3.112;2022-09-19T04:07:09;13.80;99.90
18932;DHT22;9598;50.954;3.112;2022-09-19T04:12:14;13.80;99.90
18932;DHT22;9598;50.954;3.112;2022-09-19T04:17:18;13.80;99.90
18932;DHT22;9598;50.954;3.112;2022-09-19T04:22:21;13.80;99.90
18932;DHT22;9598;50.954;3.112;2022-09-19T04:28:02;13.70;99.90
18932;DHT22;9598;50.954;3.112;2022-09-19T04:33:08;13.70;99.90
18932;DHT22;9598;50.954;3.112;2022-09-19T04:38:15;13.70;99.90
18932;DHT22;9598;50.954;3.112;2022-09-19T04:43:21;13.60;99.90
18932;DHT22;9598;50.954;3.112;2022-09-19T04:48:35;13.60;99.90
18932;DHT22;9598;50.954;3.112;2022-09-19T04:53:39;13.50;99.90
18932;DHT22;9598;50.954;3.112;2022-09-19T04:58:43;13.50;99.90
18932;DHT22;9598;50.954;3.112;2022-09-19T05:03:45;13.40;99.90
18932;DHT22;9598;50.954;3.112;2022-09-19T05:08:51;13.50;99.90
18932;DHT22;9598;50.954;3.112;2022-09-19T05:14:02;13.50;99.90
18932;DHT22;9598;50.954;3.112;2022-09-19T05:19:08;13.40;99.90
18932;DHT22;9598;50.954;3.112;2022-09-19T05:24:11;13.40;99.90
18932;DHT22;9598;50.954;3.112;2022-09-19T05:29:15;13.40;99.90
18932;DHT22;9598;50.954;3.112;2022-09-19T05:34:37;13.40;99.90
18932;DHT22;9598;50.954;3.112;2022-09-19T05:39:41;13.40;99.90
18932;DHT22;9598;50.954;3.112;2022-09-19T05:45:15;13.40;99.90
18932;DHT22;9598;50.954;3.112;2022-09-19T05:50:17;13.40;99.90
18932;DHT22;9598;50.954;3.112;2022-09-19T05:55:21;13.50;99.90
18932;DHT22;9598;50.954;3.112;2022-09-19T06:00:43;13.50;99.90
18932;DHT22;9598;50.954;3.112;2022-09-19T06:05:46;13.50;99.90
18932;DHT22;9598;50.954;3.112;2022-09-19T06:10:51;13.50;99.90
18932;DHT22;9598;50.954;3.112;2022-09-19T06:15:59;13.50;99.90
18932;DHT22;9598;50.954;3.112;2022-09-19T06:21:27;13.40;99.90
18932;DHT22;9598;50.954;3.112;2022-09-19T06:26:34;13.50;99.90
18932;DHT22;9598;50.954;3.112;2022-09-19T06:31:36;13.50;99.90
18932;DHT22;9598;50.954;3.112;2022-09-19T06:37:01;13.60;99.90
18932;DHT22;9598;50.954;3.112;2022-09-19T06:42:05;13.70;99.90
18932;DHT22;9598;50.954;3.112;2022-09-19T06:47:23;13.70;99.90
18932;DHT22;9598;50.954;3.112;2022-09-19T06:52:51;13.80;99.90
18932;DHT22;9598;50.954;3.112;2022-09-19T06:57:56;13.80;99.90
18932;DHT22;9598;50.954;3.112;2022-09-19T07:03:00;13.90;99.90
18932;DHT22;9598;50.954;3.112;2022-09-19T07:08:03;14.00;99.90
18932;DHT22;9598;50.954;3.112;2022-09-19T07:13:09;14.00;99.90
18932;DHT22;9598;50.954;3.112;2022-09-19T07:18:18;14.10;99.90
18932;DHT22;9598;50.954;3.112;2022-09-19T07:23:24;14.00;99.90
18932;DHT22;9598;50.954;3.112;2022-09-19T07:29:00;14.10;99.90
18932;DHT22;9598;50.954;3.112;2022-09-19T07:34:02;14.20;99.90
18932;DHT22;9598;50.954;3.112;2022-09-19T07:39:07;14.20;99.90
18932;DHT22;9598;50.954;3.112;2022-09-19T07:44:28;14.30;99.90
18932;DHT22;9598;50.954;3.112;2022-09-19T07:49:59;14.40;99.90
18932;DHT22;9598;50.954;3.112;2022-09-19T07:55:25;14.50;99.90
18932;DHT22;9598;50.954;3.112;2022-09-19T08:00:30;14.60;99.90
18932;DHT22;9598;50.954;3.112;2022-09-19T08:05:35;14.70;99.90
18932;DHT22;9598;50.954;3.112;2022-09-19T08:10:39;14.90;99.90
18932;DHT22;9598;50.954;3.112;2022-09-19T08:15:43;15.00;99.90
18932;DHT22;9598;50.954;3.112;2022-09-19T08:20:47;15.20;99.90
18932;DHT22;9598;50.954;3.112;2022-09-19T08:25:50;15.30;99.90
18932;DHT22;9598;50.954;3.112;2022-09-19T08:30:59;15.40;99.90
18932;DHT22;9598;50.954;3.112;2022-09-19T08:36:05;15.50;99.90
18932;DHT22;9598;50.954;3.112;2022-09-19T08:41:33;15.70;99.90
18932;DHT22;9598;50.954;3.112;2022-09-19T08:46:45;15.80;99.90
18932;DHT22;9598;50.954;3.112;2022-09-19T08:51:54;16.00;99.90
18932;DHT22;9598;50.954;3.112;2022-09-19T08:56:58;16.30;99.90
18932;DHT22;9598;50.954;3.112;2022-09-19T09:02:07;16.60;99.90
18932;DHT22;9598;50.954;3.112;2022-09-19T09:07:37;16.80;99.90
18932;DHT22;9598;50.954;3.112;2022-09-19T09:13:09;16.90;99.90
18932;DHT22;9598;50.954;3.112;2022-09-19T09:18:33;16.80;99.90
18932;DHT22;9598;50.954;3.112;2022-09-19T09:23:42;16.60;99.90
18932;DHT22;9598;50.954;3.112;2022-09-19T09:29:08;16.60;99.90
18932;DHT22;9598;50.954;3.112;2022-09-19T09:34:38;16.60;99.90
18932;DHT22;9598;50.954;3.112;2022-09-19T09:39:45;16.50;99.90
18932;DHT22;9598;50.954;3.112;2022-09-19T09:45:05;16.60;99.90
18932;DHT22;9598;50.954;3.112;2022-09-19T09:50:33;16.60;99.90
18932;DHT22;9598;50.954;3.112;2022-09-19T09:55:44;16.60;99.90
18932;DHT22;9598;50.954;3.112;2022-09-19T10:01:18;16.70;99.90
18932;DHT22;9598;50.954;3.112;2022-09-19T10:06:47;16.90;99.90
18932;DHT22;9598;50.954;3.112;2022-09-19T10:11:57;17.10;99.90
18932;DHT22;9598;50.954;3.112;2022-09-19T10:17:01;17.30;99.90
18932;DHT22;9598;50.954;3.112;2022-09-19T10:22:15;17.50;99.90
18932;DHT22;9598;50.954;3.112;2022-09-19T10:27:37;17.40;99.90
18932;DHT22;9598;50.954;3.112;2022-09-19T10:33:16;17.60;99.90
18932;DHT22;9598;50.954;3.112;2022-09-19T10:38:47;17.70;99.90
18932;DHT22;9598;50.954;3.112;2022-09-19T10:43:50;17.60;99.90
18932;DHT22;9598;50.954;3.112;2022-09-19T10:48:56;17.30;99.90
18932;DHT22;9598;50.954;3.112;2022-09-19T10:54:07;17.20;99.90
18932;DHT22;9598;50.954;3.112;2022-09-19T10:59:24;17.20;99.90
18932;DHT22;9598;50.954;3.112;2022-09-19T11:04:57;17.30;99.90
18932;DHT22;9598;50.954;3.112;2022-09-19T11:10:32;17.50;99.90
18932;DHT22;9598;50.954;3.112;2022-09-19T11:16:13;17.60;99.90
18932;DHT22;9598;50.954;3.112;2022-09-19T11:21:26;17.80;99.90
18932;DHT22;9598;50.954;3.112;2022-09-19T11:26:38;18.00;99.90
18932;DHT22;9598;50.954;3.112;2022-09-19T11:31:49;18.10;99.90
18932;DHT22;9598;50.954;3.112;2022-09-19T11:37:22;18.30;99.90
18932;DHT22;9598;50.954;3.112;2022-09-19T11:42:36;18.30;99.90
18932;DHT22;9598;50.954;3.112;2022-09-19T11:48:01;18.20;99.90
18932;DHT22;9598;50.954;3.112;2022-09-19T11:53:20;18.20;99.90
18932;DHT22;9598;50.954;3.112;2022-09-19T11:58:58;18.50;99.90
18932;DHT22;9598;50.954;3.112;2022-09-19T12:04:16;18.60;99.90
18932;DHT22;9598;50.954;3.112;2022-09-19T12:09:26;18.80;99.90
18932;DHT22;9598;50.954;3.112;2022-09-19T12:14:35;18.80;99.90
18932;DHT22;9598;50.954;3.112;2022-09-19T12:19:46;18.70;99.90
18932;DHT22;9598;50.954;3.112;2022-09-19T12:24:54;18.50;99.90
18932;DHT22;9598;50.954;3.112;2022-09-19T12:30:12;18.50;99.90
18932;DHT22;9598;50.954;3.112;2022-09-19T12:35:20;18.40;99.90
18932;DHT22;9598;50.954;3.112;2022-09-19T12:40:30;18.60;99.90
18932;DHT22;9598;50.954;3.112;2022-09-19T12:45:39;18.70;99.90
18932;DHT22;9598;50.954;3.112;2022-09-19T12:50:44;18.60;99.90
18932;DHT22;9598;50.954;3.112;2022-09-19T12:55:56;18.50;99.90
18932;DHT22;9598;50.954;3.112;2022-09-19T13:01:17;18.40;99.90
18932;DHT22;9598;50.954;3.112;2022-09-19T13:06:23;18.30;99.90
18932;DHT22;9598;50.954;3.112;2022-09-19T13:11:31;18.20;99.90
18932;DHT22;9598;50.954;3.112;2022-09-19T13:16:39;18.30;99.90
18932;DHT22;9598;50.954;3.112;2022-09-19T13:22:05;18.40;99.90
18932;DHT22;9598;50.954;3.112;2022-09-19T13:27:25;18.50;99.90
18932;DHT22;9598;50.954;3.112;2022-09-19T13:37:56;18.60;99.90
18932;DHT22;9598;50.954;3.112;2022-09-19T13:43:03;18.50;99.90
18932;DHT22;9598;50.954;3.112;2022-09-19T13:48:16;18.50;99.90
18932;DHT22;9598;50.954;3.112;2022-09-19T13:53:28;18.60;99.90
18932;DHT22;9598;50.954;3.112;2022-09-19T13:58:35;18.60;99.90
18932;DHT22;9598;50.954;3.112;2022-09-19T14:03:43;18.60;99.90
18932;DHT22;9598;50.954;3.112;2022-09-19T14:19:44;18.50;99.90
18932;DHT22;9598;50.954;3.112;2022-09-19T14:24:49;18.60;99.90
18932;DHT22;9598;50.954;3.112;2022-09-19T14:29:57;18.60;99.90
18932;DHT22;9598;50.954;3.112;2022-09-19T14:35:24;18.50;99.90
18932;DHT22;9598;50.954;3.112;2022-09-19T14:40:37;18.40;99.90
18932;DHT22;9598;50.954;3.112;2022-09-19T14:46:00;18.30;99.90
18932;DHT22;9598;50.954;3.112;2022-09-19T14:51:21;18.40;99.90
18932;DHT22;9598;50.954;3.112;2022-09-19T14:56:31;18.50;99.90
18932;DHT22;9598;50.954;3.112;2022-09-19T15:01:35;18.50;99.90
18932;DHT22;9598;50.954;3.112;2022-09-19T15:06:45;18.40;99.90
18932;DHT22;9598;50.954;3.112;2022-09-19T15:11:48;18.30;99.90
18932;DHT22;9598;50.954;3.112;2022-09-19T15:17:06;18.30;99.90
18932;DHT22;9598;50.954;3.112;2022-09-19T15:22:23;18.30;99.90
18932;DHT22;9598;50.954;3.112;2022-09-19T15:27:32;18.20;99.90
18932;DHT22;9598;50.954;3.112;2022-09-19T15:32:34;18.20;99.90
18932;DHT22;9598;50.954;3.112;2022-09-19T15:37:42;18.20;99.90
18932;DHT22;9598;50.954;3.112;2022-09-19T15:42:45;18.10;99.90
18932;DHT22;9598;50.954;3.112;2022-09-19T15:47:47;18.10;99.90
18932;DHT22;9598;50.954;3.112;2022-09-19T15:52:51;18.00;99.90
18932;DHT22;9598;50.954;3.112;2022-09-19T15:57:53;17.90;99.90
18932;DHT22;9598;50.954;3.112;2022-09-19T16:02:57;17.90;99.90
18932;DHT22;9598;50.954;3.112;2022-09-19T16:08:10;17.80;99.90
18932;DHT22;9598;50.954;3.112;2022-09-19T16:13:40;17.80;99.90
18932;DHT22;9598;50.954;3.112;2022-09-19T16:18:47;17.90;99.90
18932;DHT22;9598;50.954;3.112;2022-09-19T16:23:51;17.80;99.90
18932;DHT22;9598;50.954;3.112;2022-09-19T16:28:54;17.90;99.90
18932;DHT22;9598;50.954;3.112;2022-09-19T16:33:58;17.80;99.90
18932;DHT22;9598;50.954;3.112;2022-09-19T16:39:20;17.70;99.90
18932;DHT22;9598;50.954;3.112;2022-09-19T16:44:38;17.60;99.90
18932;DHT22;9598;50.954;3.112;2022-09-19T16:49:40;17.60;99.90
18932;DHT22;9598;50.954;3.112;2022-09-19T16:54:45;17.50;99.90
18932;DHT22;9598;50.954;3.112;2022-09-19T16:59:50;17.40;99.90
18932;DHT22;9598;50.954;3.112;2022-09-19T17:04:53;17.40;99.90
18932;DHT22;9598;50.954;3.112;2022-09-19T17:09:57;17.30;99.90
18932;DHT22;9598;50.954;3.112;2022-09-19T17:14:59;17.30;99.90
18932;DHT22;9598;50.954;3.112;2022-09-19T17:20:01;17.20;99.90
18932;DHT22;9598;50.954;3.112;2022-09-19T17:25:11;17.10;99.90
18932;DHT22;9598;50.954;3.112;2022-09-19T17:30:15;17.10;99.90
18932;DHT22;9598;50.954;3.112;2022-09-19T17:35:18;17.00;99.90
18932;DHT22;9598;50.954;3.112;2022-09-19T17:40:22;17.00;99.90
18932;DHT22;9598;50.954;3.112;2022-09-19T17:45:24;17.00;99.90
18932;DHT22;9598;50.954;3.112;2022-09-19T17:50:28;16.90;99.90
18932;DHT22;9598;50.954;3.112;2022-09-19T17:55:35;16.90;99.90
18932;DHT22;9598;50.954;3.112;2022-09-19T18:00:38;16.90;99.90
18932;DHT22;9598;50.954;3.112;2022-09-19T18:05:40;16.80;99.90
18932;DHT22;9598;50.954;3.112;2022-09-19T18:10:44;16.80;99.90
18932;DHT22;9598;50.954;3.112;2022-09-19T18:15:46;16.80;99.90
18932;DHT22;9598;50.954;3.112;2022-09-19T18:20:52;16.70;99.90
18932;DHT22;9598;50.954;3.112;2022-09-19T18:26:00;16.60;99.90
18932;DHT22;9598;50.954;3.112;2022-09-19T18:31:07;16.50;99.90
18932;DHT22;9598;50.954;3.112;2022-09-19T18:36:13;16.40;99.90
18932;DHT22;9598;50.954;3.112;2022-09-19T18:41:17;16.40;99.90
18932;DHT22;9598;50.954;3.112;2022-09-19T18:46:20;16.30;99.90
18932;DHT22;9598;50.954;3.112;2022-09-19T18:51:24;16.20;99.90
18932;DHT22;9598;50.954;3.112;2022-09-19T18:56:28;16.00;99.90
18932;DHT22;9598;50.954;3.112;2022-09-19T19:01:30;16.00;99.90
18932;DHT22;9598;50.954;3.112;2022-09-19T19:06:35;15.90;99.90
18932;DHT22;9598;50.954;3.112;2022-09-19T19:11:38;15.80;99.90
18932;DHT22;9598;50.954;3.112;2022-09-19T19:16:41;15.70;99.90
18932;DHT22;9598;50.954;3.112;2022-09-19T19:21:43;15.60;99.90
18932;DHT22;9598;50.954;3.112;2022-09-19T19:26:47;15.50;99.90
18932;DHT22;9598;50.954;3.112;2022-09-19T19:31:49;15.50;99.90
18932;DHT22;9598;50.954;3.112;2022-09-19T19:36:51;15.40;99.90
18932;DHT22;9598;50.954;3.112;2022-09-19T19:41:55;15.40;99.90
18932;DHT22;9598;50.954;3.112;2022-09-19T19:46:59;15.30;99.90
18932;DHT22;9598;50.954;3.112;2022-09-19T19:52:01;15.20;99.90
18932;DHT22;9598;50.954;3.112;2022-09-19T19:57:05;15.20;99.90
18932;DHT22;9598;50.954;3.112;2022-09-19T20:02:10;15.10;99.90
18932;DHT22;9598;50.954;3.112;2022-09-19T20:07:13;15.00;99.90
18932;DHT22;9598;50.954;3.112;2022-09-19T20:12:16;15.00;99.90
18932;DHT22;9598;50.954;3.112;2022-09-19T20:17:18;14.90;99.90
18932;DHT22;9598;50.954;3.112;2022-09-19T20:22:20;14.80;99.90
18932;DHT22;9598;50.954;3.112;2022-09-19T20:27:24;14.70;99.90
18932;DHT22;9598;50.954;3.112;2022-09-19T20:32:26;14.70;99.90
18932;DHT22;9598;50.954;3.112;2022-09-19T20:37:29;14.60;99.90
18932;DHT22;9598;50.954;3.112;2022-09-19T20:42:32;14.50;99.90
18932;DHT22;9598;50.954;3.112;2022-09-19T20:47:34;14.50;99.90
18932;DHT22;9598;50.954;3.112;2022-09-19T20:52:36;14.40;99.90
18932;DHT22;9598;50.954;3.112;2022-09-19T20:57:40;14.40;99.90
18932;DHT22;9598;50.954;3.112;2022-09-19T21:02:42;14.30;99.90
18932;DHT22;9598;50.954;3.112;2022-09-19T21:07:44;14.20;99.90
18932;DHT22;9598;50.954;3.112;2022-09-19T21:12:48;14.20;99.90
18932;DHT22;9598;50.954;3.112;2022-09-19T21:17:50;14.20;99.90
18932;DHT22;9598;50.954;3.112;2022-09-19T21:22:53;14.20;99.90
18932;DHT22;9598;50.954;3.112;2022-09-19T21:27:57;14.10;99.90
18932;DHT22;9598;50.954;3.112;2022-09-19T21:32:59;14.00;99.90
18932;DHT22;9598;50.954;3.112;2022-09-19T21:38:01;13.90;99.90
18932;DHT22;9598;50.954;3.112;2022-09-19T21:43:04;13.90;99.90
18932;DHT22;9598;50.954;3.112;2022-09-19T21:48:06;13.80;99.90
18932;DHT22;9598;50.954;3.112;2022-09-19T21:53:08;13.70;99.90
18932;DHT22;9598;50.954;3.112;2022-09-19T21:58:12;13.70;99.90
18932;DHT22;9598;50.954;3.112;2022-09-19T22:03:14;13.70;99.90
18932;DHT22;9598;50.954;3.112;2022-09-19T22:08:17;13.70;99.90
18932;DHT22;9598;50.954;3.112;2022-09-19T22:13:20;13.60;99.90
18932;DHT22;9598;50.954;3.112;2022-09-19T22:18:23;13.60;99.90
18932;DHT22;9598;50.954;3.112;2022-09-19T22:23:26;13.50;99.90
18932;DHT22;9598;50.954;3.112;2022-09-19T22:28:30;13.50;99.90
18932;DHT22;9598;50.954;3.112;2022-09-19T22:33:34;13.40;99.90
18932;DHT22;9598;50.954;3.112;2022-09-19T22:38:37;13.40;99.90
18932;DHT22;9598;50.954;3.112;2022-09-19T22:43:41;13.40;99.90
18932;DHT22;9598;50.954;3.112;2022-09-19T22:48:44;13.40;99.90
18932;DHT22;9598;50.954;3.112;2022-09-19T22:53:46;13.40;99.90
18932;DHT22;9598;50.954;3.112;2022-09-19T22:58:50;13.30;99.90
18932;DHT22;9598;50.954;3.112;2022-09-19T23:03:53;13.30;99.90
18932;DHT22;9598;50.954;3.112;2022-09-19T23:08:57;13.30;99.90
18932;DHT22;9598;50.954;3.112;2022-09-19T23:14:03;13.30;99.90
18932;DHT22;9598;50.954;3.112;2022-09-19T23:19:09;13.30;99.90
18932;DHT22;9598;50.954;3.112;2022-09-19T23:24:13;13.30;99.90
18932;DHT22;9598;50.954;3.112;2022-09-19T23:29:17;13.30;99.90
18932;DHT22;9598;50.954;3.112;2022-09-19T23:34:20;13.30;99.90
18932;DHT22;9598;50.954;3.112;2022-09-19T23:39:22;13.30;99.90
18932;DHT22;9598;50.954;3.112;2022-09-19T23:44:26;13.30;99.90
18932;DHT22;9598;50.954;3.112;2022-09-19T23:49:28;13.30;99.90
18932;DHT22;9598;50.954;3.112;2022-09-19T23:54:30;13.30;99.90
18932;DHT22;9598;50.954;3.112;2022-09-19T23:59:33;13.30;99.90
